Time;durP1;ratioP1;P1;durP2;ratioP2;P2;SDS_P1;SDS_P2;PMS_P1;PMS_P2;Temp;Humidity;BMP_temperature;BMP_pressure;BME280_temperature;BME280_humidity;BME280_pressure;Samples;Min_cycle;Max_cycle;Signal;HPM_P1;HPM_P2
2021/12/21 00:00:46;;;;;;;5.05;1.10;;;32.30;99.90;;;;;;4996098;28;20521;-69
2021/12/21 00:03:13;;;;;;;5.78;0.93;;;32.30;99.90;;;;;;4996327;28;20262;-68
2021/12/21 00:05:42;;;;;;;4.50;1.10;;;32.40;99.90;;;;;;5004116;28;20196;-69
2021/12/21 00:08:12;;;;;;;3.45;0.88;;;32.90;99.90;;;;;;5000543;28;20540;-68
2021/12/21 00:10:44;;;;;;;3.60;1.08;;;33.10;99.90;;;;;;4980749;28;20191;-68
2021/12/21 00:13:35;;;;;;;3.50;0.98;;;33.00;99.90;;;;;;5015244;28;20233;-68
2021/12/21 00:19:26;;;;;;;7.35;1.45;;;32.60;98.50;;;;;;5008539;28;20185;-70
2021/12/21 00:21:38;;;;;;;8.43;1.17;;;32.40;99.90;;;;;;5009609;28;20232;-69
2021/12/21 00:24:13;;;;;;;6.40;1.27;;;32.60;99.90;;;;;;5014419;28;20519;-69
2021/12/21 00:26:40;;;;;;;4.03;0.90;;;32.40;99.10;;;;;;5014910;28;20225;-68
2021/12/21 00:29:08;;;;;;;4.15;0.90;;;32.70;98.90;;;;;;5014347;28;20630;-67
2021/12/21 00:31:38;;;;;;;12.30;2.08;;;33.10;98.60;;;;;;5015197;28;20189;-68
2021/12/21 00:34:08;;;;;;;6.85;1.27;;;33.10;99.90;;;;;;5015333;28;20169;-69
2021/12/21 00:36:38;;;;;;;3.15;1.02;;;32.90;98.40;;;;;;5011753;28;20178;-69
2021/12/21 00:39:08;;;;;;;3.75;0.90;;;33.20;98.70;;;;;;4995580;28;20633;-69
2021/12/21 00:41:36;;;;;;;3.70;0.93;;;33.40;97.70;;;;;;5011750;28;20245;-70
2021/12/21 00:44:04;;;;;;;3.20;1.10;;;33.40;98.10;;;;;;5015215;28;20178;-68
2021/12/21 00:46:32;;;;;;;6.22;1.35;;;33.50;97.30;;;;;;5013950;28;20178;-69
2021/12/21 00:49:13;;;;;;;10.13;1.45;;;33.70;99.10;;;;;;4999805;28;20183;-68
2021/12/21 00:51:42;;;;;;;7.72;1.30;;;34.10;98.50;;;;;;5011001;28;20213;-69
2021/12/21 00:54:10;;;;;;;2.65;1.17;;;34.40;99.00;;;;;;4994850;28;20182;-71
2021/12/21 00:56:38;;;;;;;7.30;1.38;;;34.00;96.60;;;;;;4995278;28;20675;-71
2021/12/21 00:59:07;;;;;;;5.05;1.15;;;33.60;94.10;;;;;;4995216;28;20295;-72
2021/12/21 01:01:40;;;;;;;6.25;1.40;;;33.50;99.90;;;;;;4994957;28;20202;-70
2021/12/21 01:04:18;;;;;;;7.05;1.70;;;33.70;95.60;;;;;;5000537;28;20178;-70
2021/12/21 01:07:00;;;;;;;2.85;1.05;;;34.30;99.10;;;;;;5008702;28;20475;-68
2021/12/21 01:12:20;;;;;;;4.10;1.10;;;34.90;98.30;;;;;;5014108;28;20264;-69
2021/12/21 01:17:45;;;;;;;3.88;1.30;;;34.40;91.70;;;;;;5013544;28;20201;-70
2021/12/21 01:20:27;;;;;;;7.43;1.20;;;34.50;93.90;;;;;;5011772;28;20185;-69
2021/12/21 01:28:13;;;;;;;5.32;1.27;;;35.00;93.30;;;;;;5014208;28;20549;-70
2021/12/21 01:30:56;;;;;;;9.68;1.55;;;34.80;94.20;;;;;;5013763;28;20253;-69
2021/12/21 01:36:13;;;;;;;24.35;2.05;;;35.50;93.90;;;;;;5002047;28;20177;-69
2021/12/21 01:38:56;;;;;;;5.82;1.58;;;35.30;90.80;;;;;;5006330;28;20668;-68
2021/12/21 01:42:08;;;;;;;7.43;1.70;;;35.30;92.50;;;;;;5000346;28;20612;-69
2021/12/21 01:49:32;;;;;;;15.40;1.45;;;34.90;91.20;;;;;;4993046;28;20187;-68
2021/12/21 01:49:57;;;;;;;9.55;1.92;;;35.00;96.10;;;;;;5013620;28;20189;-69
2021/12/21 01:52:27;;;;;;;6.22;1.45;;;35.40;93.80;;;;;;5012597;28;20186;-70
2021/12/21 01:54:56;;;;;;;8.30;1.50;;;35.60;92.90;;;;;;5014005;28;20174;-70
2021/12/21 01:57:24;;;;;;;11.07;2.15;;;35.50;93.30;;;;;;5002473;28;20185;-69
2021/12/21 01:59:51;;;;;;;10.98;2.75;;;35.30;93.30;;;;;;4994147;28;20538;-69
2021/12/21 02:02:21;;;;;;;12.00;1.55;;;35.40;99.00;;;;;;4993881;28;20732;-69
2021/12/21 02:04:49;;;;;;;7.45;1.40;;;35.70;92.00;;;;;;4993285;28;20632;-70
2021/12/21 02:07:18;;;;;;;5.90;1.73;;;36.20;95.40;;;;;;4997815;28;20186;-71
2021/12/21 02:09:46;;;;;;;4.97;1.20;;;36.50;92.90;;;;;;4996642;28;20525;-69
2021/12/21 02:12:16;;;;;;;6.47;1.48;;;36.60;93.50;;;;;;4990146;28;20190;-70
2021/12/21 02:14:54;;;;;;;7.45;2.17;;;36.80;93.50;;;;;;5013412;28;20178;-69
2021/12/21 02:20:05;;;;;;;5.97;1.60;;;36.50;92.50;;;;;;4993790;28;20550;-69
2021/12/21 02:22:36;;;;;;;12.00;1.77;;;36.50;87.40;;;;;;4993755;28;20210;-68
2021/12/21 02:25:31;;;;;;;8.70;1.58;;;36.20;85.40;;;;;;4993640;28;20177;-68
2021/12/21 02:28:10;;;;;;;5.65;1.25;;;36.00;86.90;;;;;;4993366;28;20194;-68
2021/12/21 02:30:42;;;;;;;6.72;1.35;;;35.70;82.50;;;;;;4993338;28;20249;-68
2021/12/21 02:33:12;;;;;;;13.50;1.85;;;36.20;86.20;;;;;;4993569;28;20186;-69
2021/12/21 02:35:40;;;;;;;6.72;1.80;;;36.60;90.10;;;;;;4992118;28;20189;-68
2021/12/21 02:38:09;;;;;;;10.60;1.52;;;36.40;81.10;;;;;;5010167;28;20178;-68
2021/12/21 02:40:37;;;;;;;3.30;1.27;;;36.20;88.20;;;;;;5013117;28;20635;-69
2021/12/21 02:43:06;;;;;;;4.30;1.40;;;36.50;90.90;;;;;;5009114;28;20206;-69
2021/12/21 02:45:34;;;;;;;6.18;1.88;;;36.60;90.90;;;;;;4993474;28;20182;-69
2021/12/21 02:48:02;;;;;;;7.22;1.45;;;36.50;87.20;;;;;;4993268;28;20217;-70
2021/12/21 02:50:30;;;;;;;7.53;1.50;;;36.20;91.30;;;;;;4994182;28;20183;-69
2021/12/21 02:52:59;;;;;;;6.53;1.60;;;36.30;88.60;;;;;;4993349;28;20179;-71
2021/12/21 02:55:27;;;;;;;6.63;1.30;;;35.60;90.30;;;;;;4993210;28;20185;-69
2021/12/21 02:57:57;;;;;;;8.18;1.83;;;36.00;95.10;;;;;;4993248;28;20178;-69
2021/12/21 03:00:30;;;;;;;9.65;1.67;;;36.30;96.30;;;;;;4993141;28;20241;-69
2021/12/21 03:03:02;;;;;;;5.15;1.45;;;36.50;94.10;;;;;;4993295;28;20687;-69
2021/12/21 03:05:31;;;;;;;8.50;1.23;;;36.40;94.60;;;;;;4995469;28;20240;-69
2021/12/21 03:11:02;;;;;;;5.13;1.35;;;36.50;96.40;;;;;;5012599;28;20602;-69
2021/12/21 03:16:16;;;;;;;5.55;1.67;;;36.50;94.20;;;;;;5014517;28;20608;-68
2021/12/21 03:18:44;;;;;;;7.18;1.48;;;36.00;97.10;;;;;;5003938;28;20671;-67
2021/12/21 03:21:13;;;;;;;3.20;1.20;;;36.10;95.20;;;;;;4997006;28;20214;-69
2021/12/21 03:23:41;;;;;;;4.88;1.30;;;36.20;94.40;;;;;;4979507;28;20202;-68
2021/12/21 03:26:08;;;;;;;12.57;1.42;;;36.10;97.80;;;;;;5011720;28;20182;-69
2021/12/21 03:28:36;;;;;;;5.57;1.40;;;36.00;94.00;;;;;;5016639;28;20178;-68
2021/12/21 03:31:05;;;;;;;6.80;1.60;;;35.90;94.30;;;;;;5016190;28;20230;-69
2021/12/21 03:33:33;;;;;;;7.55;1.35;;;35.90;97.10;;;;;;5016411;28;20188;-67
2021/12/21 03:36:02;;;;;;;13.25;1.35;;;36.20;96.20;;;;;;5016119;28;20170;-68
2021/12/21 03:38:31;;;;;;;8.68;1.35;;;35.90;92.10;;;;;;5015010;28;20281;-68
2021/12/21 03:41:10;;;;;;;6.10;1.05;;;35.60;93.60;;;;;;5015999;28;20232;-69
2021/12/21 03:43:38;;;;;;;3.80;1.20;;;35.20;93.70;;;;;;5008543;28;20183;-68
2021/12/21 03:46:11;;;;;;;5.25;1.00;;;35.30;93.10;;;;;;4996524;28;20202;-68
2021/12/21 03:48:41;;;;;;;4.97;1.58;;;35.50;96.00;;;;;;4996444;28;20171;-68
2021/12/21 03:51:10;;;;;;;7.10;1.50;;;35.40;95.50;;;;;;4999771;28;20663;-68
2021/12/21 03:53:38;;;;;;;5.85;1.38;;;35.60;93.70;;;;;;5006771;28;20185;-67
2021/12/21 03:58:44;;;;;;;6.00;1.23;;;35.30;92.70;;;;;;5006210;28;20182;-68
2021/12/21 04:01:11;;;;;;;6.13;1.25;;;35.40;92.60;;;;;;5003740;28;20201;-68
2021/12/21 04:03:39;;;;;;;5.80;1.20;;;35.30;96.20;;;;;;4996290;28;20270;-68
2021/12/21 04:06:09;;;;;;;6.18;1.20;;;35.30;94.40;;;;;;4997854;28;20175;-68
2021/12/21 04:08:37;;;;;;;4.32;1.05;;;35.40;94.90;;;;;;5006351;28;20220;-68
2021/12/21 04:11:05;;;;;;;6.43;1.48;;;35.10;91.40;;;;;;5004247;28;20182;-69
2021/12/21 04:13:33;;;;;;;5.00;1.02;;;34.90;94.10;;;;;;5014398;28;20285;-68
2021/12/21 04:16:04;;;;;;;4.78;1.30;;;35.10;92.20;;;;;;4997973;28;20620;-69
2021/12/21 04:18:36;;;;;;;5.50;1.30;;;35.20;92.20;;;;;;5015477;28;20173;-69
2021/12/21 04:21:05;;;;;;;8.57;1.30;;;35.30;92.00;;;;;;5013940;28;20206;-69
2021/12/21 04:23:33;;;;;;;6.43;1.60;;;35.30;92.20;;;;;;5009949;28;20526;-69
2021/12/21 04:26:01;;;;;;;5.00;1.10;;;35.60;93.90;;;;;;5015321;28;20639;-69
2021/12/21 04:28:28;;;;;;;3.83;1.35;;;35.20;92.70;;;;;;5014560;28;20205;-68
2021/12/21 04:30:56;;;;;;;4.55;1.35;;;35.40;92.40;;;;;;5000003;28;20229;-68
2021/12/21 04:33:24;;;;;;;4.43;1.10;;;35.60;92.00;;;;;;4995793;28;20270;-68
2021/12/21 04:35:52;;;;;;;8.95;1.52;;;35.80;91.90;;;;;;4995743;28;20193;-68
2021/12/21 04:38:26;;;;;;;6.45;1.00;;;36.10;94.20;;;;;;4995667;28;20182;-69
2021/12/21 04:41:03;;;;;;;8.13;1.52;;;36.00;92.90;;;;;;5014467;28;20205;-68
2021/12/21 04:43:31;;;;;;;7.05;1.20;;;35.70;93.40;;;;;;5009249;28;20194;-69
2021/12/21 04:45:59;;;;;;;5.90;1.38;;;35.60;91.80;;;;;;5000379;28;20182;-68
2021/12/21 04:48:27;;;;;;;6.40;1.58;;;35.40;91.50;;;;;;5005709;28;20178;-68
2021/12/21 04:50:55;;;;;;;5.13;1.15;;;35.20;92.00;;;;;;4995109;28;20206;-70
2021/12/21 04:53:24;;;;;;;7.25;1.42;;;35.00;91.10;;;;;;5002251;28;20512;-68
2021/12/21 04:55:52;;;;;;;4.20;1.17;;;35.10;92.60;;;;;;5014918;28;20178;-68
2021/12/21 04:58:21;;;;;;;6.28;1.42;;;35.10;92.90;;;;;;5014925;28;20714;-69
2021/12/21 05:00:50;;;;;;;8.27;1.63;;;35.70;93.00;;;;;;5014620;28;20228;-68
2021/12/21 05:03:18;;;;;;;5.82;1.25;;;35.60;93.60;;;;;;4996944;28;20298;-68
2021/12/21 05:05:46;;;;;;;5.07;1.13;;;35.40;92.20;;;;;;5013060;28;20186;-70
2021/12/21 05:08:24;;;;;;;10.65;1.55;;;35.70;92.50;;;;;;5000293;28;20183;-71
2021/12/21 05:10:57;;;;;;;6.68;1.55;;;35.60;92.70;;;;;;5014108;28;20178;-69
2021/12/21 05:13:28;;;;;;;10.43;1.50;;;35.50;94.20;;;;;;5014226;28;20170;-69
2021/12/21 05:15:57;;;;;;;4.50;1.35;;;35.50;92.60;;;;;;5014021;28;20185;-69
2021/12/21 05:18:25;;;;;;;5.05;1.30;;;35.50;95.20;;;;;;5014256;28;20173;-69
2021/12/21 05:20:53;;;;;;;8.50;1.33;;;35.30;92.80;;;;;;5014097;28;20185;-69
2021/12/21 05:23:22;;;;;;;4.68;1.02;;;35.50;93.10;;;;;;5014090;28;20178;-69
2021/12/21 05:25:50;;;;;;;5.78;1.38;;;35.10;92.80;;;;;;5012477;28;20622;-70
2021/12/21 05:28:18;;;;;;;10.85;1.63;;;35.00;93.50;;;;;;4995716;28;20552;-68
2021/12/21 05:30:46;;;;;;;10.93;2.15;;;35.30;93.30;;;;;;4994158;28;20230;-69
2021/12/21 05:33:15;;;;;;;7.28;1.40;;;34.50;93.00;;;;;;4995508;28;20182;-70
2021/12/21 05:35:43;;;;;;;6.03;1.55;;;34.50;94.50;;;;;;4999589;28;20190;-69
2021/12/21 05:38:16;;;;;;;7.70;1.60;;;34.40;94.20;;;;;;5013866;28;20175;-71
2021/12/21 05:40:46;;;;;;;3.83;1.27;;;34.00;96.10;;;;;;5013893;28;20174;-69
2021/12/21 05:43:15;;;;;;;10.63;1.80;;;34.50;95.60;;;;;;5008421;28;20191;-68
2021/12/21 05:45:42;;;;;;;9.50;1.67;;;34.50;96.60;;;;;;4994004;28;20233;-69
2021/12/21 05:48:09;;;;;;;8.77;1.67;;;34.40;97.00;;;;;;4993857;28;20202;-71
2021/12/21 05:50:37;;;;;;;7.22;1.73;;;34.30;98.10;;;;;;4976708;28;20233;-68
2021/12/21 05:53:05;;;;;;;6.43;1.77;;;34.30;99.50;;;;;;4995165;28;20541;-69
2021/12/21 05:55:32;;;;;;;7.90;1.70;;;34.20;99.90;;;;;;5003592;28;20246;-68
2021/12/21 05:58:00;;;;;;;8.77;2.03;;;34.30;99.60;;;;;;4978097;28;20649;-68
2021/12/21 06:00:31;;;;;;;5.90;1.50;;;34.20;99.90;;;;;;4993869;28;20208;-69
2021/12/21 06:02:58;;;;;;;8.75;1.95;;;33.90;99.90;;;;;;5006279;28;20708;-69
2021/12/21 06:05:26;;;;;;;7.35;2.20;;;33.80;99.90;;;;;;4994838;28;20266;-69
2021/12/21 06:07:55;;;;;;;6.25;2.08;;;33.80;99.90;;;;;;4992576;28;20186;-70
2021/12/21 06:10:38;;;;;;;13.63;2.10;;;33.90;99.90;;;;;;4993756;28;20179;-68
2021/12/21 06:26:44;;;;;;;9.18;1.60;;;33.40;99.90;;;;;;4993792;28;20213;-69
2021/12/21 06:29:11;;;;;;;6.05;1.60;;;33.40;99.90;;;;;;4999212;28;20678;-70
2021/12/21 06:31:40;;;;;;;5.70;1.58;;;33.40;99.90;;;;;;5001923;28;20615;-70
2021/12/21 06:34:08;;;;;;;10.07;2.22;;;33.10;99.90;;;;;;4993435;28;20312;-69
2021/12/21 06:36:35;;;;;;;14.18;2.22;;;32.50;99.90;;;;;;4993400;28;20245;-69
2021/12/21 06:39:05;;;;;;;7.82;2.40;;;32.30;99.90;;;;;;4993343;28;20191;-68
2021/12/21 06:41:35;;;;;;;9.88;2.08;;;32.10;99.90;;;;;;4993170;28;20233;-68
2021/12/21 06:44:04;;;;;;;8.52;2.00;;;32.10;99.90;;;;;;4995226;28;20269;-69
2021/12/21 06:51:10;;;;;;;6.18;2.20;;;32.00;99.90;;;;;;4993178;28;20218;-69
2021/12/21 06:52:14;;;;;;;8.98;2.10;;;31.80;99.90;;;;;;4992622;28;20667;-68
2021/12/21 06:54:41;;;;;;;11.07;2.17;;;31.30;99.90;;;;;;4993250;28;20194;-68
2021/12/21 06:57:09;;;;;;;8.00;1.53;;;31.30;99.90;;;;;;5000331;28;20187;-68
2021/12/21 06:59:36;;;;;;;7.67;2.20;;;31.50;99.90;;;;;;4993216;28;20189;-69
2021/12/21 07:02:04;;;;;;;6.85;1.73;;;31.30;99.90;;;;;;5005100;28;20213;-68
2021/12/21 07:04:32;;;;;;;6.83;2.10;;;31.20;99.90;;;;;;5012729;28;20212;-68
2021/12/21 07:06:59;;;;;;;11.80;2.22;;;31.30;99.90;;;;;;5012456;28;20560;-68
2021/12/21 07:09:40;;;;;;;7.93;2.33;;;31.30;99.90;;;;;;5012702;28;20185;-68
2021/12/21 07:17:47;;;;;;;9.50;2.00;;;31.30;99.90;;;;;;5012452;28;20260;-68
2021/12/21 07:18:13;;;;;;;11.07;2.38;;;30.90;99.90;;;;;;5012637;28;20180;-69
2021/12/21 07:20:41;;;;;;;8.10;1.97;;;30.50;99.90;;;;;;4994793;28;20559;-69
2021/12/21 07:23:08;;;;;;;6.33;1.70;;;30.50;99.90;;;;;;5011176;28;20598;-68
2021/12/21 07:25:35;;;;;;;7.67;1.80;;;30.60;99.90;;;;;;5003279;28;20180;-69
2021/12/21 07:28:03;;;;;;;6.47;1.80;;;30.60;99.90;;;;;;5012083;28;20196;-69
2021/12/21 07:30:30;;;;;;;16.13;2.77;;;30.50;99.90;;;;;;5010406;28;20229;-69
2021/12/21 07:32:58;;;;;;;8.47;2.10;;;30.30;99.90;;;;;;5012750;28;20617;-69
2021/12/21 07:35:26;;;;;;;6.73;2.20;;;30.10;99.90;;;;;;4994688;28;20182;-69
2021/12/21 07:37:53;;;;;;;6.87;1.50;;;30.00;99.90;;;;;;5012031;28;20182;-68
2021/12/21 07:40:20;;;;;;;6.57;2.20;;;29.90;99.90;;;;;;5012334;28;20170;-70
2021/12/21 07:42:49;;;;;;;7.90;1.77;;;29.80;99.90;;;;;;5012285;28;20621;-69
2021/12/21 07:45:17;;;;;;;8.30;1.90;;;29.70;99.90;;;;;;5012389;28;20171;-69
2021/12/21 07:47:44;;;;;;;8.67;2.67;;;29.70;99.90;;;;;;5012324;28;20173;-69
2021/12/21 07:50:12;;;;;;;10.33;1.77;;;29.40;99.90;;;;;;5012140;28;20363;-68
2021/12/21 07:52:40;;;;;;;10.13;2.07;;;29.30;99.90;;;;;;5006900;28;20202;-69
2021/12/21 07:55:07;;;;;;;7.37;1.80;;;29.20;99.90;;;;;;4992683;28;20190;-68
2021/12/21 07:57:35;;;;;;;9.20;2.00;;;29.40;99.90;;;;;;4992650;28;20236;-68
2021/12/21 08:00:03;;;;;;;6.47;1.87;;;29.20;99.90;;;;;;5005359;28;20671;-69
2021/12/21 08:02:31;;;;;;;9.43;2.30;;;29.20;99.90;;;;;;5012616;28;20202;-70
2021/12/21 08:05:04;;;;;;;6.40;1.97;;;29.10;99.90;;;;;;5016055;28;20553;-69
2021/12/21 08:07:35;;;;;;;7.80;1.90;;;28.50;99.90;;;;;;5015730;28;20557;-70
2021/12/21 08:10:18;;;;;;;6.90;1.90;;;28.50;99.90;;;;;;5014598;28;20741;-70
2021/12/21 08:12:46;;;;;;;7.47;1.80;;;28.50;99.90;;;;;;5015803;28;20174;-70
2021/12/21 08:15:14;;;;;;;7.87;1.77;;;28.40;99.90;;;;;;5005950;28;20190;-68
2021/12/21 08:17:41;;;;;;;5.27;1.63;;;28.40;99.90;;;;;;5001323;28;20674;-68
2021/12/21 08:20:09;;;;;;;6.33;1.33;;;28.60;99.90;;;;;;5007655;28;20565;-69
2021/12/21 08:22:36;;;;;;;7.10;1.77;;;28.30;99.90;;;;;;5016079;28;20217;-69
2021/12/21 08:25:06;;;;;;;8.73;1.70;;;28.10;99.90;;;;;;5000478;28;20274;-70
2021/12/21 08:27:33;;;;;;;7.80;1.70;;;28.00;99.90;;;;;;4996346;28;20190;-70
2021/12/21 08:30:01;;;;;;;4.97;1.30;;;27.60;99.90;;;;;;4997220;28;20225;-71
2021/12/21 08:32:28;;;;;;;9.10;1.77;;;27.60;99.90;;;;;;4996418;28;20187;-70
2021/12/21 08:34:55;;;;;;;11.67;2.13;;;27.50;99.90;;;;;;5003843;28;20251;-69
2021/12/21 08:37:23;;;;;;;4.70;1.70;;;27.40;99.90;;;;;;5013904;28;20178;-69
2021/12/21 08:39:50;;;;;;;6.77;2.03;;;27.30;99.90;;;;;;4996206;28;20174;-70
2021/12/21 08:42:18;;;;;;;11.10;1.70;;;27.20;99.90;;;;;;4996117;28;20216;-68
2021/12/21 08:44:46;;;;;;;14.90;2.37;;;26.90;99.90;;;;;;4996245;28;20232;-69
2021/12/21 08:47:15;;;;;;;6.47;1.40;;;26.80;99.90;;;;;;4992253;28;20265;-69
2021/12/21 08:49:42;;;;;;;5.90;1.80;;;26.70;99.90;;;;;;5015760;28;20189;-69
2021/12/21 08:52:10;;;;;;;7.97;2.23;;;26.50;99.90;;;;;;5015561;28;20200;-69
2021/12/21 08:54:37;;;;;;;12.10;2.13;;;26.30;99.90;;;;;;4999768;28;20656;-69
2021/12/21 08:57:05;;;;;;;9.07;1.67;;;26.20;99.90;;;;;;4996176;28;20185;-70
2021/12/21 08:59:32;;;;;;;14.90;2.07;;;26.10;99.90;;;;;;4995804;28;20175;-70
2021/12/21 09:02:00;;;;;;;10.13;2.20;;;25.90;99.90;;;;;;4996005;28;20284;-70
2021/12/21 09:04:27;;;;;;;7.13;1.90;;;25.80;99.90;;;;;;4996012;28;20212;-69
2021/12/21 09:06:55;;;;;;;7.43;2.47;;;25.70;99.90;;;;;;4981811;28;20194;-70
2021/12/21 09:09:22;;;;;;;8.23;1.87;;;25.60;99.90;;;;;;4996537;28;20190;-70
2021/12/21 09:11:50;;;;;;;8.30;2.13;;;25.50;99.90;;;;;;4996193;28;20175;-70
2021/12/21 09:14:18;;;;;;;7.50;2.03;;;25.50;99.90;;;;;;4996320;28;20170;-70
2021/12/21 09:16:45;;;;;;;7.10;2.23;;;25.60;99.90;;;;;;4995550;28;20640;-70
2021/12/21 09:19:13;;;;;;;8.50;1.90;;;25.60;99.90;;;;;;4996528;28;20185;-70
2021/12/21 09:21:40;;;;;;;10.73;2.47;;;25.50;99.90;;;;;;4976819;28;20221;-70
2021/12/21 09:24:08;;;;;;;6.10;2.03;;;25.50;99.90;;;;;;4994602;28;20610;-70
2021/12/21 09:26:37;;;;;;;8.83;2.13;;;25.50;99.90;;;;;;4994819;28;20170;-69
2021/12/21 09:29:04;;;;;;;9.00;2.23;;;25.40;99.90;;;;;;4994621;28;20179;-70
2021/12/21 09:31:31;;;;;;;14.57;2.70;;;25.40;99.90;;;;;;4994589;28;20198;-70
2021/12/21 09:33:59;;;;;;;12.23;2.23;;;25.40;99.90;;;;;;4994986;28;20229;-69
2021/12/21 09:36:28;;;;;;;9.67;2.20;;;25.40;99.90;;;;;;4994964;28;20195;-69
2021/12/21 09:38:57;;;;;;;7.10;2.07;;;25.30;99.90;;;;;;4977674;28;20687;-70
2021/12/21 09:41:24;;;;;;;6.70;2.27;;;25.20;99.90;;;;;;4995427;28;20245;-69
2021/12/21 09:43:52;;;;;;;13.30;2.80;;;25.20;99.90;;;;;;4994244;28;20244;-69
2021/12/21 09:46:19;;;;;;;13.40;2.30;;;25.00;99.90;;;;;;4995332;28;20698;-72
2021/12/21 09:48:46;;;;;;;9.03;2.00;;;25.00;99.90;;;;;;4995047;28;20183;-70
2021/12/21 09:51:15;;;;;;;11.57;3.30;;;25.00;99.90;;;;;;4997893;28;20726;-69
2021/12/21 09:53:44;;;;;;;15.53;2.60;;;25.10;99.90;;;;;;4999126;28;20622;-70
2021/12/21 09:56:11;;;;;;;11.57;2.80;;;25.00;99.90;;;;;;4977661;28;20559;-71
2021/12/21 09:58:39;;;;;;;9.87;3.20;;;25.00;99.90;;;;;;4994928;28;20209;-71
2021/12/21 10:01:06;;;;;;;7.13;2.20;;;25.00;99.90;;;;;;4994988;28;20186;-71
2021/12/21 10:03:34;;;;;;;8.37;2.73;;;24.90;99.90;;;;;;4994819;28;20198;-72
2021/12/21 10:06:07;;;;;;;11.03;2.50;;;24.80;99.90;;;;;;4995153;28;20174;-70
2021/12/21 10:08:35;;;;;;;8.53;2.40;;;24.80;99.90;;;;;;4994674;28;20233;-68
2021/12/21 10:11:04;;;;;;;9.23;3.10;;;24.80;99.90;;;;;;5009367;28;20655;-69
2021/12/21 10:13:34;;;;;;;10.37;2.83;;;24.80;99.90;;;;;;5014370;28;20631;-70
2021/12/21 10:16:04;;;;;;;14.43;3.73;;;24.80;99.90;;;;;;5014509;28;20534;-70
2021/12/21 10:18:41;;;;;;;7.83;2.80;;;24.70;99.90;;;;;;5014166;28;20181;-71
2021/12/21 10:21:14;;;;;;;12.57;3.37;;;24.60;99.90;;;;;;5014177;28;20166;-71
2021/12/21 10:23:48;;;;;;;15.77;2.93;;;24.70;99.90;;;;;;5014090;28;20261;-71
2021/12/21 10:26:32;;;;;;;13.60;3.00;;;24.60;99.90;;;;;;5012747;28;20174;-70
2021/12/21 10:29:05;;;;;;;13.27;2.70;;;24.60;99.90;;;;;;4994775;28;20170;-71
2021/12/21 10:31:36;;;;;;;11.13;3.00;;;24.70;99.90;;;;;;4994288;28;20205;-72
2021/12/21 10:34:12;;;;;;;11.87;3.20;;;24.70;99.90;;;;;;4993416;28;20178;-70
2021/12/21 10:36:45;;;;;;;10.60;2.67;;;24.80;99.90;;;;;;4994586;28;20183;-71
2021/12/21 10:39:28;;;;;;;12.77;3.37;;;24.90;99.90;;;;;;5011418;28;20178;-71
2021/12/21 10:42:02;;;;;;;13.10;2.90;;;25.10;99.90;;;;;;5013655;28;20212;-72
2021/12/21 10:44:29;;;;;;;8.40;2.57;;;25.20;99.90;;;;;;5014343;28;20174;-72
2021/12/21 10:46:57;;;;;;;15.97;2.90;;;25.20;99.90;;;;;;5014011;28;20178;-72
2021/12/21 10:49:27;;;;;;;14.97;2.90;;;25.00;99.90;;;;;;5013866;28;20178;-71
2021/12/21 10:52:04;;;;;;;7.10;2.33;;;25.00;99.90;;;;;;5013843;28;20181;-71
2021/12/21 10:54:42;;;;;;;10.10;2.80;;;25.00;99.90;;;;;;5013732;28;20182;-71
2021/12/21 10:57:16;;;;;;;11.57;2.93;;;25.00;99.90;;;;;;5013824;28;20185;-72
2021/12/21 10:59:50;;;;;;;12.73;2.60;;;24.80;99.90;;;;;;5013429;28;20567;-69
2021/12/21 11:02:24;;;;;;;10.50;2.40;;;24.70;99.90;;;;;;5011547;28;20248;-71
2021/12/21 11:04:57;;;;;;;9.80;2.63;;;24.80;99.90;;;;;;5012764;28;20240;-70
2021/12/21 11:07:39;;;;;;;9.90;2.30;;;24.70;99.90;;;;;;5011796;28;20189;-69
2021/12/21 11:10:15;;;;;;;9.90;2.67;;;24.60;99.90;;;;;;5005394;28;20237;-72
2021/12/21 11:12:42;;;;;;;7.53;2.30;;;24.70;99.90;;;;;;4994019;28;20327;-71
2021/12/21 11:15:15;;;;;;;10.33;2.63;;;24.80;99.90;;;;;;4994003;28;20201;-70
2021/12/21 11:17:43;;;;;;;13.90;2.47;;;24.70;99.90;;;;;;4996442;28;20190;-70
2021/12/21 11:20:12;;;;;;;15.30;2.67;;;24.80;99.90;;;;;;5008855;28;20194;-72
2021/12/21 11:22:42;;;;;;;10.93;2.57;;;24.80;99.90;;;;;;5013184;28;20209;-71
2021/12/21 11:25:12;;;;;;;10.43;2.50;;;24.80;99.90;;;;;;5002230;28;20186;-72
2021/12/21 11:27:42;;;;;;;9.83;2.30;;;24.80;99.90;;;;;;5011663;28;20190;-73
2021/12/21 11:30:13;;;;;;;10.27;2.37;;;24.70;99.90;;;;;;5011325;28;20229;-71
2021/12/21 11:32:48;;;;;;;13.27;2.47;;;24.60;99.90;;;;;;5004655;28;20185;-71
2021/12/21 11:37:53;;;;;;;10.43;2.57;;;24.40;99.90;;;;;;5000801;28;20209;-71
2021/12/21 11:40:24;;;;;;;14.87;2.97;;;24.40;99.90;;;;;;5004735;28;20237;-71
2021/12/21 11:42:51;;;;;;;18.40;3.23;;;24.40;99.90;;;;;;5007434;28;20224;-72
2021/12/21 11:45:31;;;;;;;10.07;2.57;;;24.50;99.90;;;;;;5004750;28;20228;-71
2021/12/21 11:48:12;;;;;;;13.67;3.07;;;24.40;99.90;;;;;;4980286;28;20194;-71
2021/12/21 11:50:42;;;;;;;12.43;2.53;;;24.30;99.90;;;;;;5011515;28;20232;-71
2021/12/21 11:53:12;;;;;;;11.77;2.90;;;24.20;99.90;;;;;;5017016;28;20232;-73
2021/12/21 11:55:43;;;;;;;11.17;3.60;;;24.20;99.90;;;;;;5002748;28;20186;-71
2021/12/21 11:58:26;;;;;;;14.53;2.60;;;24.10;99.90;;;;;;5009385;28;20233;-72
2021/12/21 12:00:56;;;;;;;12.90;2.60;;;24.00;99.90;;;;;;5000866;28;20272;-71
2021/12/21 12:03:26;;;;;;;11.50;2.70;;;23.90;99.90;;;;;;4998795;28;20222;-70
2021/12/21 12:06:12;;;;;;;11.53;3.03;;;23.80;99.90;;;;;;5008571;28;20181;-71
2021/12/21 12:08:50;;;;;;;15.57;3.10;;;23.90;99.90;;;;;;5006892;28;20182;-71
2021/12/21 12:11:40;;;;;;;9.23;2.83;;;23.90;99.90;;;;;;4996961;28;20270;-71
2021/12/21 12:14:14;;;;;;;15.40;3.10;;;23.80;99.90;;;;;;4997074;28;20664;-71
2021/12/21 12:16:43;;;;;;;13.17;3.97;;;23.80;99.90;;;;;;5011538;28;20243;-70
2021/12/21 12:19:16;;;;;;;14.97;3.00;;;23.60;99.90;;;;;;5015796;28;20189;-71
2021/12/21 12:22:03;;;;;;;17.23;3.20;;;23.60;99.90;;;;;;5004467;28;20333;-71
2021/12/21 12:24:41;;;;;;;16.27;2.90;;;23.60;99.90;;;;;;4984957;28;20557;-71
2021/12/21 12:27:24;;;;;;;15.67;3.37;;;23.60;99.90;;;;;;4996644;28;20197;-72
2021/12/21 12:29:58;;;;;;;12.73;3.00;;;23.50;99.90;;;;;;5001451;28;20213;-71
2021/12/21 12:33:02;;;;;;;11.77;3.07;;;23.50;99.90;;;;;;5016692;28;20178;-71
2021/12/21 12:35:33;;;;;;;13.50;3.10;;;23.50;99.90;;;;;;5013795;28;20212;-71
2021/12/21 12:38:04;;;;;;;12.03;3.23;;;23.40;99.90;;;;;;5016524;28;20643;-71
2021/12/21 12:40:35;;;;;;;16.67;3.50;;;23.30;99.90;;;;;;5009473;28;20175;-71
2021/12/21 12:43:11;;;;;;;15.17;2.93;;;23.30;99.90;;;;;;4996422;28;20257;-71
2021/12/21 12:45:51;;;;;;;13.73;3.30;;;23.30;99.90;;;;;;4996625;28;20265;-73
2021/12/21 12:48:21;;;;;;;18.07;3.17;;;23.30;99.90;;;;;;4984807;28;20268;-71
2021/12/21 12:50:51;;;;;;;15.90;3.27;;;23.20;99.90;;;;;;5015912;28;20659;-71
2021/12/21 12:53:19;;;;;;;22.40;3.47;;;23.20;99.90;;;;;;5015909;28;20177;-71
2021/12/21 12:55:59;;;;;;;18.90;3.93;;;23.10;99.90;;;;;;5015685;28;20315;-72
2021/12/21 12:58:28;;;;;;;17.77;3.23;;;23.10;99.90;;;;;;5015645;28;20182;-70
2021/12/21 13:01:07;;;;;;;15.07;3.83;;;23.10;99.90;;;;;;5014489;28;20344;-71
2021/12/21 13:03:40;;;;;;;15.00;3.27;;;23.10;99.90;;;;;;5015817;28;20192;-71
2021/12/21 13:06:20;;;;;;;15.80;4.20;;;23.10;99.90;;;;;;5015523;28;20177;-71
2021/12/21 13:08:48;;;;;;;15.53;3.23;;;23.10;99.90;;;;;;4996098;28;20205;-71
2021/12/21 13:11:22;;;;;;;20.67;3.70;;;23.00;99.90;;;;;;4995917;28;20181;-72
2021/12/21 13:13:49;;;;;;;27.83;5.07;;;23.00;99.90;;;;;;4996088;28;20206;-71
2021/12/21 13:16:23;;;;;;;15.53;3.80;;;23.00;99.90;;;;;;4996138;28;20169;-72
2021/12/21 13:18:59;;;;;;;17.00;3.50;;;22.90;99.90;;;;;;4978541;28;20194;-72
2021/12/21 13:21:29;;;;;;;15.40;3.03;;;22.90;99.90;;;;;;4995930;28;20298;-72
2021/12/21 13:24:09;;;;;;;18.20;3.50;;;22.90;99.90;;;;;;4995583;28;20186;-71
2021/12/21 13:26:39;;;;;;;17.00;4.17;;;22.90;99.90;;;;;;4995727;28;20274;-71
2021/12/21 13:29:19;;;;;;;21.43;4.30;;;22.90;99.90;;;;;;4996247;28;20170;-71
2021/12/21 13:31:48;;;;;;;27.93;3.93;;;22.90;99.90;;;;;;4995491;28;20233;-71
2021/12/21 13:34:17;;;;;;;12.83;4.13;;;22.90;99.90;;;;;;4995455;28;20177;-71
2021/12/21 13:36:47;;;;;;;19.03;4.03;;;22.90;99.90;;;;;;4995605;28;20214;-71
2021/12/21 13:39:31;;;;;;;24.83;4.47;;;22.80;99.90;;;;;;4995247;28;20239;-72
2021/12/21 13:42:05;;;;;;;17.87;3.83;;;22.70;99.90;;;;;;4995560;28;20219;-72
2021/12/21 13:44:39;;;;;;;14.63;3.67;;;22.70;99.90;;;;;;5005860;28;20591;-72
2021/12/21 13:47:20;;;;;;;24.33;3.97;;;22.70;99.90;;;;;;5013838;28;20193;-72
2021/12/21 13:50:08;;;;;;;17.23;2.87;;;22.70;99.90;;;;;;5014951;28;20170;-71
2021/12/21 13:52:40;;;;;;;20.47;3.43;;;22.70;99.90;;;;;;5015002;28;20177;-71
2021/12/21 13:55:27;;;;;;;14.87;3.70;;;22.70;99.90;;;;;;5014797;28;20181;-72